Time;durP1;ratioP1;P1;durP2;ratioP2;P2;SDS_P1;SDS_P2;PMS_P1;PMS_P2;Temp;Humidity;BMP_temperature;BMP_pressure;BME280_temperature;BME280_humidity;BME280_pressure;Samples;Min_cycle;Max_cycle;Signal;HPM_P1;HPM_P2
2022/09/02 00:01:50;;;;;;;2.25;1.08;;;14.20;99.90;;;;;;4855640;29;20069;-67
2022/09/02 00:04:20;;;;;;;1.55;1.10;;;14.20;99.90;;;;;;4852410;29;20057;-68
2022/09/02 00:06:47;;;;;;;1.45;1.05;;;14.10;99.90;;;;;;4828332;29;20046;-67
2022/09/02 00:09:17;;;;;;;5.03;1.23;;;14.10;99.90;;;;;;4844941;29;20072;-66
2022/09/02 00:11:45;;;;;;;2.38;1.20;;;14.10;99.90;;;;;;4836489;29;20058;-65
2022/09/02 00:14:15;;;;;;;2.38;1.23;;;14.00;99.90;;;;;;4850879;29;20061;-66
2022/09/02 00:16:51;;;;;;;1.88;1.10;;;14.00;99.90;;;;;;4848133;29;20098;-67
2022/09/02 00:19:20;;;;;;;3.58;1.17;;;14.00;99.90;;;;;;4848421;29;20463;-66
2022/09/02 00:21:45;;;;;;;1.02;1.02;;;13.90;99.90;;;;;;4826438;29;20049;-66
2022/09/02 00:24:11;;;;;;;2.08;1.17;;;14.00;99.90;;;;;;4830156;29;20374;-67
2022/09/02 00:26:37;;;;;;;3.28;1.30;;;13.90;99.90;;;;;;4843885;29;20084;-65
2022/09/02 00:29:03;;;;;;;1.70;0.88;;;13.90;99.90;;;;;;4842678;29;20062;-67
2022/09/02 00:31:29;;;;;;;2.08;1.20;;;13.90;99.90;;;;;;4842141;29;20085;-67
2022/09/02 00:33:55;;;;;;;1.20;1.10;;;13.80;99.90;;;;;;4828995;29;20082;-66
2022/09/02 00:36:21;;;;;;;1.83;1.10;;;13.80;99.90;;;;;;4826302;29;20060;-68
2022/09/02 00:38:47;;;;;;;1.42;1.02;;;13.80;99.90;;;;;;4839000;29;20061;-66
2022/09/02 00:41:13;;;;;;;1.65;1.10;;;13.70;99.90;;;;;;4848202;29;20053;-68
2022/09/02 00:43:46;;;;;;;1.45;1.17;;;13.70;99.90;;;;;;4826033;29;20080;-66
2022/09/02 00:46:14;;;;;;;2.97;1.27;;;13.70;99.90;;;;;;4826005;29;20137;-67
2022/09/02 00:48:45;;;;;;;1.35;1.10;;;13.60;99.90;;;;;;4851462;29;20467;-66
2022/09/02 00:51:11;;;;;;;1.20;1.02;;;13.70;99.90;;;;;;4872084;29;20057;-67
2022/09/02 00:53:38;;;;;;;1.30;1.20;;;13.60;99.90;;;;;;4848619;29;20062;-67
2022/09/02 00:56:08;;;;;;;2.47;1.23;;;13.60;99.90;;;;;;4858144;29;20061;-67
2022/09/02 00:58:36;;;;;;;1.50;1.33;;;13.60;99.90;;;;;;4860181;29;20156;-66
2022/09/02 01:01:02;;;;;;;1.30;1.20;;;13.60;99.90;;;;;;4850160;29;20472;-67
2022/09/02 01:03:30;;;;;;;2.92;1.35;;;13.50;99.90;;;;;;4850035;29;20065;-67
2022/09/02 01:05:58;;;;;;;2.13;1.30;;;13.50;99.90;;;;;;4860945;29;20458;-67
2022/09/02 01:08:28;;;;;;;2.63;1.23;;;13.50;99.90;;;;;;4859290;29;20136;-67
2022/09/02 01:10:54;;;;;;;1.70;1.20;;;13.50;99.90;;;;;;4831067;29;20065;-67
2022/09/02 01:13:24;;;;;;;1.42;1.20;;;13.50;99.90;;;;;;4855725;29;20415;-67
2022/09/02 01:16:11;;;;;;;1.73;1.40;;;13.50;99.90;;;;;;4857217;29;20060;-66
2022/09/02 01:18:37;;;;;;;2.22;1.27;;;13.40;99.90;;;;;;4861008;29;20176;-65
2022/09/02 01:21:03;;;;;;;1.60;1.13;;;13.40;99.90;;;;;;4857888;29;20160;-66
2022/09/02 01:23:30;;;;;;;2.30;1.20;;;13.40;99.90;;;;;;4859599;29;20073;-66
2022/09/02 01:25:57;;;;;;;2.40;1.10;;;13.40;99.90;;;;;;4842788;29;20064;-67
2022/09/02 01:28:24;;;;;;;2.35;1.52;;;13.40;99.90;;;;;;4849028;29;20137;-68
2022/09/02 01:30:52;;;;;;;2.88;1.58;;;13.30;99.90;;;;;;4858911;29;20065;-67
2022/09/02 01:33:20;;;;;;;2.25;1.25;;;13.30;99.90;;;;;;4853662;29;20403;-68
2022/09/02 01:35:46;;;;;;;2.33;1.55;;;13.30;99.90;;;;;;4826716;29;20054;-67
2022/09/02 01:38:12;;;;;;;2.65;1.38;;;13.30;99.90;;;;;;4837806;29;20060;-66
2022/09/02 01:40:38;;;;;;;2.38;1.10;;;13.20;99.90;;;;;;4859321;29;20528;-67
2022/09/02 01:43:11;;;;;;;2.47;1.60;;;13.20;99.90;;;;;;4847505;29;20058;-66
2022/09/02 01:45:37;;;;;;;2.65;1.90;;;13.20;99.90;;;;;;4856583;29;20140;-67
2022/09/02 01:48:04;;;;;;;1.98;1.60;;;13.20;99.90;;;;;;4827033;29;20058;-66
2022/09/02 01:50:31;;;;;;;2.47;1.30;;;13.20;99.90;;;;;;4849135;29;20120;-65
2022/09/02 01:52:57;;;;;;;2.38;1.50;;;13.10;99.90;;;;;;4851830;29;20056;-66
2022/09/02 01:55:24;;;;;;;2.53;1.85;;;13.10;99.90;;;;;;4860781;29;20053;-65
2022/09/02 01:57:49;;;;;;;3.53;1.50;;;13.10;99.90;;;;;;4850245;29;20129;-67
2022/09/02 02:00:15;;;;;;;1.80;1.30;;;13.00;99.90;;;;;;4827233;29;20057;-66
2022/09/02 02:02:41;;;;;;;3.28;1.40;;;13.10;99.90;;;;;;4841796;29;20136;-67
2022/09/02 02:05:07;;;;;;;1.92;1.33;;;13.10;99.90;;;;;;4829321;29;20060;-65
2022/09/02 02:07:33;;;;;;;2.03;1.30;;;13.00;99.90;;;;;;4859566;29;20055;-65
2022/09/02 02:09:59;;;;;;;1.88;1.38;;;12.90;99.90;;;;;;4825242;29;20049;-68
2022/09/02 02:12:25;;;;;;;2.22;1.30;;;13.00;99.90;;;;;;4840595;29;20058;-65
2022/09/02 02:14:50;;;;;;;1.58;1.25;;;12.90;99.90;;;;;;4852362;29;20056;-65
2022/09/02 02:17:16;;;;;;;2.28;1.45;;;12.90;99.90;;;;;;4830336;29;20459;-66
2022/09/02 02:19:42;;;;;;;1.60;1.50;;;12.90;99.90;;;;;;4852592;29;20058;-65
2022/09/02 02:22:09;;;;;;;2.42;1.50;;;12.90;99.90;;;;;;4847144;29;20085;-66
2022/09/02 02:24:34;;;;;;;1.58;1.48;;;12.90;99.90;;;;;;4841449;29;20053;-67
2022/09/02 02:27:01;;;;;;;1.65;1.42;;;12.80;99.90;;;;;;4841628;29;20058;-66
2022/09/02 02:29:26;;;;;;;2.90;1.50;;;12.90;99.90;;;;;;4847863;29;20057;-66
2022/09/02 02:31:52;;;;;;;1.50;1.40;;;12.80;99.90;;;;;;4856991;29;20384;-67
2022/09/02 02:34:18;;;;;;;1.65;1.50;;;12.80;99.90;;;;;;4836804;29;20132;-66
2022/09/02 02:36:44;;;;;;;2.95;1.20;;;12.80;99.90;;;;;;4852021;29;20054;-66
2022/09/02 02:39:10;;;;;;;1.50;1.40;;;12.70;99.90;;;;;;4811190;29;22239;-67
2022/09/02 02:41:37;;;;;;;2.30;1.63;;;12.70;99.90;;;;;;4856201;29;20060;-66
2022/09/02 02:44:03;;;;;;;2.65;1.40;;;12.70;99.90;;;;;;4841737;29;20102;-67
2022/09/02 02:46:30;;;;;;;1.92;1.45;;;12.70;99.90;;;;;;4851195;29;20171;-65
2022/09/02 02:48:58;;;;;;;2.20;1.58;;;12.70;99.90;;;;;;4873268;29;20102;-65
2022/09/02 02:51:23;;;;;;;3.33;1.67;;;12.70;99.90;;;;;;4878301;29;20049;-66
2022/09/02 02:53:51;;;;;;;1.92;1.50;;;12.60;99.90;;;;;;4860908;29;20079;-65
2022/09/02 02:56:17;;;;;;;3.00;1.40;;;12.60;99.90;;;;;;4862858;29;20057;-66
2022/09/02 02:58:43;;;;;;;2.85;1.40;;;12.60;99.90;;;;;;4863664;29;20061;-65
2022/09/02 03:01:11;;;;;;;1.85;1.60;;;12.60;99.90;;;;;;4877164;29;20048;-65
2022/09/02 03:03:41;;;;;;;1.45;1.35;;;12.60;99.90;;;;;;4871636;29;20053;-66
2022/09/02 03:06:07;;;;;;;2.83;1.55;;;12.60;99.90;;;;;;4861373;29;20571;-66
2022/09/02 03:08:36;;;;;;;1.65;1.55;;;12.60;99.90;;;;;;4859827;29;20057;-66
2022/09/02 03:11:04;;;;;;;2.28;1.65;;;12.50;99.90;;;;;;4860070;29;20064;-66
2022/09/02 03:13:31;;;;;;;1.50;1.40;;;12.50;99.90;;;;;;4843718;29;20951;-67
2022/09/02 03:15:57;;;;;;;1.88;1.30;;;12.50;99.90;;;;;;4842682;29;20058;-66
2022/09/02 03:18:22;;;;;;;2.28;1.55;;;12.50;99.90;;;;;;4861288;29;20144;-66
2022/09/02 03:20:48;;;;;;;1.67;1.48;;;12.50;99.90;;;;;;4865946;29;20058;-66
2022/09/02 03:23:14;;;;;;;1.70;1.60;;;12.40;99.90;;;;;;4854902;29;20058;-65
2022/09/02 03:25:43;;;;;;;2.67;1.38;;;12.40;99.90;;;;;;4875277;29;20104;-66
2022/09/02 03:28:10;;;;;;;3.17;1.70;;;12.40;99.90;;;;;;4876134;29;20067;-68
2022/09/02 03:30:37;;;;;;;1.80;1.67;;;12.40;99.90;;;;;;4862759;29;20052;-65
2022/09/02 03:33:04;;;;;;;2.72;1.40;;;12.40;99.90;;;;;;4876557;29;20064;-65
2022/09/02 03:35:31;;;;;;;2.83;1.67;;;12.30;99.90;;;;;;4863637;29;20140;-66
2022/09/02 03:37:59;;;;;;;1.45;1.35;;;12.30;99.90;;;;;;4864832;29;20512;-64
2022/09/02 03:40:27;;;;;;;1.70;1.60;;;12.30;99.90;;;;;;4875548;29;20144;-67
2022/09/02 03:42:53;;;;;;;2.47;1.83;;;12.30;99.90;;;;;;4878981;29;20053;-64
2022/09/02 03:45:19;;;;;;;1.52;1.42;;;12.30;99.90;;;;;;4863887;29;20049;-65
2022/09/02 03:47:49;;;;;;;2.97;1.63;;;12.30;99.90;;;;;;4863667;29;20064;-65
2022/09/02 03:50:28;;;;;;;2.35;1.45;;;12.20;99.90;;;;;;4847895;29;20604;-66
2022/09/02 03:52:54;;;;;;;1.80;1.70;;;12.20;99.90;;;;;;4852516;29;20060;-65
2022/09/02 03:55:20;;;;;;;1.98;1.70;;;12.20;99.90;;;;;;4846253;29;20057;-66
2022/09/02 03:57:46;;;;;;;1.85;1.75;;;12.20;99.90;;;;;;4834189;29;20054;-67
2022/09/02 04:00:14;;;;;;;3.28;1.65;;;12.40;99.90;;;;;;4854490;29;20072;-67
2022/09/02 04:02:40;;;;;;;2.00;1.55;;;12.20;99.90;;;;;;4836869;29;20058;-67
2022/09/02 04:05:07;;;;;;;1.90;1.60;;;12.20;99.90;;;;;;4832651;29;20482;-67
2022/09/02 04:07:32;;;;;;;2.90;1.80;;;12.10;99.90;;;;;;4826700;29;20065;-66
2022/09/02 04:10:00;;;;;;;1.98;1.50;;;12.10;99.90;;;;;;4826327;29;20042;-66
2022/09/02 04:12:26;;;;;;;2.00;1.80;;;12.10;99.90;;;;;;4828798;29;20054;-67
2022/09/02 04:14:51;;;;;;;1.98;1.85;;;12.10;99.90;;;;;;4827319;29;20046;-67
2022/09/02 04:17:17;;;;;;;2.33;1.60;;;12.10;99.90;;;;;;4826228;29;20191;-68
2022/09/02 04:19:42;;;;;;;2.60;1.70;;;12.10;99.90;;;;;;4828346;29;20049;-67
2022/09/02 04:22:08;;;;;;;3.05;1.80;;;12.10;99.90;;;;;;4834818;29;20057;-67
2022/09/02 04:24:34;;;;;;;2.28;2.00;;;12.00;99.90;;;;;;4832281;29;20712;-66
2022/09/02 04:27:00;;;;;;;2.85;1.70;;;12.10;99.90;;;;;;4843288;29;20053;-66
2022/09/02 04:29:26;;;;;;;1.98;1.75;;;12.00;99.90;;;;;;4825949;29;20071;-66
2022/09/02 04:31:52;;;;;;;1.60;1.50;;;12.00;99.90;;;;;;4825594;29;20050;-66
2022/09/02 04:34:18;;;;;;;1.98;1.63;;;12.00;99.90;;;;;;4843071;29;20950;-66
2022/09/02 04:36:44;;;;;;;1.98;1.80;;;12.00;99.90;;;;;;4827136;29;20057;-67
2022/09/02 04:39:10;;;;;;;2.45;1.70;;;12.00;99.90;;;;;;4843397;29;20060;-66
2022/09/02 04:41:36;;;;;;;2.28;2.00;;;12.00;99.90;;;;;;4847195;29;20073;-67
2022/09/02 04:44:03;;;;;;;2.38;1.83;;;12.00;99.90;;;;;;4842488;29;20053;-66
2022/09/02 04:46:29;;;;;;;3.15;1.70;;;12.00;99.90;;;;;;4844519;29;20071;-66
2022/09/02 04:48:55;;;;;;;1.80;1.70;;;12.00;99.90;;;;;;4856425;29;20063;-65
2022/09/02 04:51:23;;;;;;;1.90;1.80;;;12.00;99.90;;;;;;4860209;29;20093;-66
2022/09/02 04:53:52;;;;;;;1.92;1.70;;;12.00;99.90;;;;;;4839578;29;20067;-66
2022/09/02 04:56:30;;;;;;;1.90;1.70;;;12.00;99.90;;;;;;4853516;29;20537;-66
2022/09/02 04:58:55;;;;;;;1.98;1.60;;;12.00;99.90;;;;;;4859584;29;20110;-67
2022/09/02 05:01:25;;;;;;;3.17;2.05;;;12.10;99.90;;;;;;4841293;29;20049;-67
2022/09/02 05:03:52;;;;;;;2.22;2.00;;;12.10;99.90;;;;;;4852847;29;20041;-65
2022/09/02 05:06:21;;;;;;;2.50;1.70;;;12.00;99.90;;;;;;4851156;29;20093;-67
2022/09/02 05:08:47;;;;;;;4.63;1.80;;;12.10;99.90;;;;;;4852940;29;20057;-65
2022/09/02 05:11:19;;;;;;;2.13;1.73;;;12.10;99.90;;;;;;4854618;29;20058;-66
2022/09/02 05:13:48;;;;;;;;;;;12.10;99.90;;;;;;4842789;29;20091;-66
2022/09/02 05:16:19;;;;;;;2.47;1.70;;;12.10;99.90;;;;;;4857006;29;19925;-67
2022/09/02 05:18:45;;;;;;;3.13;1.70;;;12.10;99.90;;;;;;4858694;29;20053;-67
2022/09/02 05:21:11;;;;;;;1.85;1.67;;;12.20;99.90;;;;;;4860547;29;20064;-66
2022/09/02 05:23:37;;;;;;;3.05;1.80;;;12.20;99.90;;;;;;4858156;29;20057;-66
2022/09/02 05:26:05;;;;;;;2.33;1.92;;;12.30;99.90;;;;;;4844074;29;20133;-67
2022/09/02 05:28:31;;;;;;;1.85;1.75;;;12.30;99.90;;;;;;4855730;29;20085;-66
2022/09/02 05:31:04;;;;;;;2.28;2.08;;;12.30;99.90;;;;;;4851002;29;20068;-66
2022/09/02 05:33:39;;;;;;;3.53;1.77;;;12.40;99.90;;;;;;4854711;29;20119;-65
2022/09/02 05:36:23;;;;;;;1.75;1.65;;;12.40;99.90;;;;;;4856608;29;20415;-67
2022/09/02 05:39:19;;;;;;;3.72;1.67;;;12.40;99.90;;;;;;4846900;29;20065;-66
2022/09/02 05:41:45;;;;;;;2.80;2.28;;;12.50;99.90;;;;;;4852015;29;21090;-66
2022/09/02 05:44:11;;;;;;;2.17;1.98;;;12.50;99.90;;;;;;4857648;29;20049;-66
2022/09/02 05:46:38;;;;;;;2.25;1.70;;;12.60;99.90;;;;;;4858024;29;20072;-66
2022/09/02 05:49:16;;;;;;;1.92;1.75;;;12.70;99.90;;;;;;4838671;29;20058;-65
2022/09/02 05:51:52;;;;;;;2.40;1.70;;;12.70;99.90;;;;;;4858730;29;20053;-66
2022/09/02 05:54:27;;;;;;;2.15;1.80;;;12.80;99.90;;;;;;4829038;29;20073;-66
2022/09/02 05:57:03;;;;;;;2.33;1.80;;;12.90;99.90;;;;;;4829203;29;20129;-65
2022/09/02 05:59:30;;;;;;;5.65;1.85;;;12.90;99.90;;;;;;4844260;29;20038;-65
2022/09/02 06:01:58;;;;;;;3.15;1.77;;;13.00;99.90;;;;;;4842137;29;20049;-66
2022/09/02 06:04:24;;;;;;;2.40;2.00;;;13.00;99.90;;;;;;4851776;29;20065;-66
2022/09/02 06:06:51;;;;;;;5.25;1.60;;;13.10;99.90;;;;;;4825833;29;20077;-66
2022/09/02 06:09:20;;;;;;;2.03;1.70;;;13.20;99.90;;;;;;4826068;29;20145;-67
2022/09/02 06:11:48;;;;;;;1.70;1.60;;;13.30;99.90;;;;;;4855929;29;20096;-65
2022/09/02 06:14:20;;;;;;;3.53;1.77;;;13.40;99.90;;;;;;4858525;29;20491;-68
2022/09/02 06:16:46;;;;;;;;;;;13.50;99.90;;;;;;4826312;29;20054;-68
2022/09/02 06:19:12;;;;;;;5.35;2.05;;;13.60;99.90;;;;;;4842058;29;19924;-67
2022/09/02 06:21:38;;;;;;;2.25;1.60;;;13.70;99.90;;;;;;4833985;29;20219;-66
2022/09/02 06:24:05;;;;;;;2.25;1.58;;;13.80;99.90;;;;;;4860497;29;20388;-67
2022/09/02 06:26:31;;;;;;;2.47;1.40;;;13.90;99.90;;;;;;4843933;29;20061;-68
2022/09/02 06:28:57;;;;;;;2.00;1.33;;;14.10;99.90;;;;;;4842294;29;20140;-67
2022/09/02 06:31:23;;;;;;;2.75;1.67;;;14.20;99.90;;;;;;4852955;29;20213;-67
2022/09/02 06:33:53;;;;;;;5.60;1.63;;;14.30;99.90;;;;;;4841630;29;20062;-67
2022/09/02 06:36:20;;;;;;;2.45;1.95;;;14.40;99.90;;;;;;4822967;29;20056;-67
2022/09/02 06:38:48;;;;;;;1.83;1.73;;;14.50;99.90;;;;;;4841754;29;20053;-68
2022/09/02 06:41:18;;;;;;;1.80;1.70;;;14.60;99.90;;;;;;4859544;29;20042;-68
2022/09/02 06:43:43;;;;;;;2.28;1.65;;;14.70;99.90;;;;;;4847025;29;20046;-68
2022/09/02 06:46:15;;;;;;;2.28;1.90;;;14.80;99.90;;;;;;4831762;29;20566;-68
2022/09/02 06:48:40;;;;;;;1.60;1.50;;;14.90;99.90;;;;;;4860524;29;20041;-69
2022/09/02 06:51:06;;;;;;;2.00;1.80;;;15.00;99.90;;;;;;4859161;29;20503;-69
2022/09/02 06:53:31;;;;;;;2.20;1.70;;;15.20;99.90;;;;;;4859337;29;20053;-67
2022/09/02 06:55:57;;;;;;;1.98;1.65;;;15.30;99.90;;;;;;4847490;29;20059;-68
2022/09/02 06:58:23;;;;;;;3.67;1.92;;;15.40;99.90;;;;;;4847090;29;20414;-68
2022/09/02 07:00:48;;;;;;;2.17;1.83;;;15.50;99.90;;;;;;4849172;29;20054;-68
2022/09/02 07:06:08;;;;;;;4.00;1.52;;;15.80;99.90;;;;;;4845286;29;20054;-68
2022/09/02 07:08:40;;;;;;;3.40;2.15;;;15.80;99.90;;;;;;4828655;29;20064;-68
2022/09/02 07:11:13;;;;;;;2.40;1.73;;;16.00;99.90;;;;;;4845364;29;20062;-68
2022/09/02 07:13:39;;;;;;;1.95;1.55;;;16.10;99.90;;;;;;4845594;29;20069;-68
2022/09/02 07:16:06;;;;;;;1.52;1.42;;;16.20;99.90;;;;;;4845319;29;20050;-67
2022/09/02 07:18:33;;;;;;;3.55;1.67;;;16.30;99.90;;;;;;4845075;29;20092;-68
2022/09/02 07:20:58;;;;;;;2.05;1.55;;;16.40;99.90;;;;;;4829030;29;20050;-67
2022/09/02 07:23:24;;;;;;;3.33;1.80;;;16.50;99.90;;;;;;4844618;29;20058;-68
2022/09/02 07:25:50;;;;;;;3.95;1.75;;;16.70;99.90;;;;;;4829081;29;20058;-68
2022/09/02 07:28:16;;;;;;;1.92;1.70;;;16.70;99.90;;;;;;4845220;29;20487;-68
2022/09/02 07:30:42;;;;;;;1.50;1.40;;;16.90;99.90;;;;;;4844902;29;20054;-66
2022/09/02 07:33:13;;;;;;;8.05;1.60;;;17.00;99.90;;;;;;4833275;29;20057;-68
2022/09/02 07:35:42;;;;;;;3.38;1.75;;;17.10;99.90;;;;;;4863936;29;20051;-68
2022/09/02 07:38:09;;;;;;;1.88;1.77;;;17.20;99.90;;;;;;4861557;29;20061;-68
2022/09/02 07:40:36;;;;;;;2.63;1.70;;;17.30;99.90;;;;;;4828482;29;20076;-68
2022/09/02 07:43:06;;;;;;;1.83;1.50;;;17.40;99.90;;;;;;4813183;29;20157;-67
2022/09/02 07:45:33;;;;;;;2.55;1.67;;;17.50;99.90;;;;;;4844705;29;20064;-68
2022/09/02 07:47:59;;;;;;;5.43;1.67;;;17.60;99.90;;;;;;4844307;29;20150;-68
2022/09/02 07:50:26;;;;;;;4.38;1.92;;;17.70;99.90;;;;;;4844708;29;20147;-67
2022/09/02 07:52:54;;;;;;;3.38;1.50;;;17.80;99.90;;;;;;4844434;29;20053;-68
2022/09/02 07:55:20;;;;;;;3.05;1.85;;;17.90;99.90;;;;;;4827996;29;20102;-68
2022/09/02 07:57:46;;;;;;;4.90;1.40;;;18.10;99.90;;;;;;4844460;29;20524;-68
2022/09/02 08:00:13;;;;;;;5.18;1.52;;;18.20;99.90;;;;;;4828090;29;20050;-69
2022/09/02 08:02:38;;;;;;;2.67;1.63;;;18.20;99.90;;;;;;4844686;29;20084;-68
2022/09/02 08:05:04;;;;;;;4.97;1.60;;;18.40;99.90;;;;;;4843333;29;20112;-68
2022/09/02 08:07:30;;;;;;;3.10;1.50;;;18.50;99.90;;;;;;4843692;29;20049;-68
2022/09/02 08:09:55;;;;;;;3.60;1.63;;;18.60;99.90;;;;;;4827749;29;20045;-67
2022/09/02 08:12:21;;;;;;;3.05;1.50;;;18.70;99.90;;;;;;4844523;29;20057;-68
2022/09/02 08:14:46;;;;;;;4.03;1.45;;;18.80;99.90;;;;;;4845949;29;20588;-68
2022/09/02 08:17:12;;;;;;;2.90;1.50;;;18.90;99.90;;;;;;4845940;29;20053;-69
2022/09/02 08:19:37;;;;;;;2.10;1.33;;;19.00;99.90;;;;;;4855560;29;20054;-68
2022/09/02 08:22:05;;;;;;;3.80;1.38;;;19.10;99.90;;;;;;4812311;29;20129;-66
2022/09/02 08:24:31;;;;;;;1.15;1.08;;;19.20;99.90;;;;;;4828127;29;20057;-67
2022/09/02 08:26:57;;;;;;;2.78;1.70;;;19.30;99.90;;;;;;4843680;29;20077;-67
2022/09/02 08:29:23;;;;;;;3.28;1.40;;;19.40;99.90;;;;;;4844288;29;20411;-66
2022/09/02 08:31:49;;;;;;;2.22;1.50;;;19.50;99.90;;;;;;4827077;29;20058;-66
2022/09/02 08:34:15;;;;;;;4.20;1.10;;;19.70;99.90;;;;;;4844040;29;20079;-66
2022/09/02 08:36:42;;;;;;;2.70;1.48;;;19.70;99.70;;;;;;4828051;29;20141;-67
2022/09/02 08:39:08;;;;;;;5.43;1.40;;;19.80;99.20;;;;;;4845773;29;20117;-66
2022/09/02 08:41:53;;;;;;;2.58;1.30;;;20.00;97.90;;;;;;4862005;29;20506;-67
2022/09/02 08:44:23;;;;;;;3.60;2.47;;;20.10;97.50;;;;;;4845417;29;20053;-66
2022/09/02 08:46:55;;;;;;;2.97;1.30;;;20.30;95.50;;;;;;4845005;29;20053;-65
2022/09/02 08:49:53;;;;;;;2.38;1.40;;;20.30;94.00;;;;;;4858147;29;20057;-67
2022/09/02 08:52:44;;;;;;;2.90;1.30;;;20.30;92.80;;;;;;4832042;29;20072;-68
2022/09/02 08:55:18;;;;;;;1.50;1.10;;;20.40;93.40;;;;;;4827389;29;20064;-66
2022/09/02 08:57:44;;;;;;;4.57;1.55;;;20.50;93.40;;;;;;4843930;29;20053;-67
2022/09/02 09:00:12;;;;;;;3.38;1.48;;;20.60;92.90;;;;;;4843398;29;20114;-66
2022/09/02 09:03:00;;;;;;;2.60;1.17;;;20.70;91.20;;;;;;4843416;29;20061;-67
2022/09/02 09:05:50;;;;;;;6.45;1.30;;;20.70;90.40;;;;;;4843390;29;20049;-67
2022/09/02 09:08:46;;;;;;;6.60;1.75;;;20.80;88.70;;;;;;4826498;29;20146;-68
2022/09/02 09:11:21;;;;;;;4.10;1.20;;;20.90;86.60;;;;;;4842939;29;20415;-67
2022/09/02 09:14:10;;;;;;;3.35;1.60;;;21.10;85.70;;;;;;4841202;29;20064;-67
2022/09/02 09:16:50;;;;;;;2.65;1.38;;;21.00;85.90;;;;;;4861314;29;20061;-67
2022/09/02 09:19:21;;;;;;;1.48;1.10;;;21.20;84.90;;;;;;4861613;29;20053;-67
2022/09/02 09:21:46;;;;;;;4.22;1.02;;;21.40;82.90;;;;;;4844460;29;20356;-67
2022/09/02 09:24:31;;;;;;;3.35;1.25;;;21.50;81.80;;;;;;4844973;29;20050;-67
2022/09/02 09:26:57;;;;;;;1.40;1.00;;;21.50;79.00;;;;;;4830986;29;20057;-66
2022/09/02 09:29:23;;;;;;;4.38;1.10;;;21.60;78.80;;;;;;4843380;29;20058;-67
2022/09/02 09:31:55;;;;;;;2.60;1.00;;;21.70;78.40;;;;;;4842691;29;20114;-68
2022/09/02 09:34:22;;;;;;;4.85;1.20;;;21.70;75.30;;;;;;4844536;29;20142;-68
2022/09/02 09:36:53;;;;;;;1.90;1.10;;;21.70;74.30;;;;;;4842423;29;20077;-66
2022/09/02 09:39:31;;;;;;;2.83;0.98;;;21.80;73.70;;;;;;4847333;29;20064;-67
2022/09/02 09:42:13;;;;;;;1.33;1.13;;;21.90;72.90;;;;;;4852538;29;20126;-68
2022/09/02 09:44:46;;;;;;;2.05;0.95;;;22.00;71.90;;;;;;4851491;29;20357;-67
2022/09/02 09:47:19;;;;;;;2.75;1.00;;;22.20;69.30;;;;;;4849826;29;20070;-68
2022/09/02 09:49:46;;;;;;;1.38;1.10;;;22.30;68.10;;;;;;4849473;29;20136;-66
2022/09/02 09:52:22;;;;;;;2.30;1.00;;;22.30;69.00;;;;;;4852036;29;20528;-68
2022/09/02 09:55:16;;;;;;;2.30;1.02;;;22.40;68.20;;;;;;4831088;29;20060;-67
2022/09/02 09:57:44;;;;;;;2.60;0.70;;;22.50;64.80;;;;;;4844849;29;20061;-66
2022/09/02 10:00:19;;;;;;;3.35;0.95;;;22.50;65.90;;;;;;4829283;29;20415;-67
2022/09/02 10:02:47;;;;;;;4.38;0.90;;;22.50;64.10;;;;;;4849773;29;20201;-67
2022/09/02 10:05:24;;;;;;;1.98;0.85;;;22.50;64.50;;;;;;4851735;29;20105;-67
2022/09/02 10:07:55;;;;;;;3.20;1.15;;;22.60;63.50;;;;;;4851970;29;20166;-68
2022/09/02 10:10:23;;;;;;;0.75;0.75;;;22.60;63.10;;;;;;4850344;29;20049;-67
2022/09/02 10:12:52;;;;;;;6.85;1.17;;;22.70;62.70;;;;;;4845273;29;20050;-67
2022/09/02 10:15:28;;;;;;;1.75;0.90;;;22.70;62.10;;;;;;4841972;29;20065;-68
2022/09/02 10:18:20;;;;;;;3.67;1.00;;;22.70;61.80;;;;;;4844180;29;20114;-67
2022/09/02 10:20:57;;;;;;;1.23;1.05;;;22.90;59.10;;;;;;4836399;29;20060;-67
2022/09/02 10:23:39;;;;;;;2.78;0.90;;;22.90;60.10;;;;;;4832839;29;20046;-65
2022/09/02 10:26:26;;;;;;;1.67;1.10;;;23.00;60.50;;;;;;4846317;29;20589;-66
2022/09/02 10:29:38;;;;;;;1.85;0.75;;;23.20;59.40;;;;;;4848965;29;20495;-66
2022/09/02 10:32:16;;;;;;;2.30;1.08;;;23.10;57.70;;;;;;4858383;29;20443;-65
2022/09/02 10:34:56;;;;;;;3.30;0.85;;;23.20;58.30;;;;;;4860368;29;20091;-65
2022/09/02 10:37:58;;;;;;;1.50;0.85;;;23.30;56.90;;;;;;4859849;29;20060;-68
2022/09/02 10:40:36;;;;;;;1.83;0.77;;;23.30;55.20;;;;;;4849773;29;20068;-66
2022/09/02 10:43:34;;;;;;;2.42;0.70;;;23.30;56.10;;;;;;4857372;29;20120;-65
2022/09/02 10:46:04;;;;;;;0.70;0.60;;;23.30;56.00;;;;;;4826626;29;20054;-67
2022/09/02 10:48:51;;;;;;;2.00;0.85;;;23.40;56.00;;;;;;4859762;29;20054;-65
2022/09/02 10:51:16;;;;;;;2.13;0.73;;;23.50;55.40;;;;;;4858138;29;20064;-67
2022/09/02 10:53:55;;;;;;;3.20;0.65;;;23.60;55.50;;;;;;4860053;29;20410;-66
2022/09/02 10:56:25;;;;;;;1.80;0.70;;;23.70;54.90;;;;;;4859615;29;20065;-66
2022/09/02 10:59:11;;;;;;;1.13;0.60;;;23.70;55.00;;;;;;4856280;29;20451;-67
2022/09/02 11:01:58;;;;;;;1.98;0.90;;;23.80;54.00;;;;;;4833620;29;20129;-65
2022/09/02 11:04:45;;;;;;;1.55;0.70;;;23.90;55.50;;;;;;4850140;29;20093;-66
2022/09/02 11:07:16;;;;;;;2.33;0.90;;;23.90;54.60;;;;;;4848946;29;20121;-67
2022/09/02 11:09:53;;;;;;;3.92;0.82;;;23.90;54.30;;;;;;4832722;29;20061;-66
2022/09/02 11:12:26;;;;;;;1.40;0.90;;;24.00;53.80;;;;;;4850973;29;20065;-66
2022/09/02 11:15:35;;;;;;;1.67;0.90;;;24.00;52.90;;;;;;4850178;29;20058;-66
2022/09/02 11:18:12;;;;;;;2.53;0.90;;;24.10;53.10;;;;;;4833501;29;20088;-65
2022/09/02 11:20:46;;;;;;;1.55;0.90;;;24.00;52.50;;;;;;4843453;29;20061;-67
2022/09/02 11:23:30;;;;;;;3.10;1.15;;;24.00;53.30;;;;;;4858022;29;20045;-67
2022/09/02 11:26:24;;;;;;;1.48;0.80;;;24.00;52.80;;;;;;4840414;29;20535;-67
2022/09/02 11:29:05;;;;;;;3.42;0.90;;;24.00;52.30;;;;;;4841845;29;20069;-67
2022/09/02 11:31:41;;;;;;;3.00;0.82;;;24.10;52.70;;;;;;4843944;29;20096;-65
2022/09/02 11:34:33;;;;;;;2.97;0.80;;;24.10;52.60;;;;;;4824939;29;20054;-65
2022/09/02 11:37:03;;;;;;;3.72;1.02;;;24.20;52.60;;;;;;4838797;29;20442;-66
2022/09/02 11:39:45;;;;;;;2.63;1.17;;;24.10;52.30;;;;;;4842708;29;20054;-67
2022/09/02 11:42:32;;;;;;;4.90;1.00;;;24.20;52.10;;;;;;4844819;29;20090;-67
2022/09/02 11:45:12;;;;;;;3.95;0.82;;;24.30;52.20;;;;;;4813784;29;20415;-67
2022/09/02 11:47:59;;;;;;;2.33;0.80;;;24.40;51.80;;;;;;4844750;29;20152;-66
2022/09/02 11:50:47;;;;;;;3.90;1.15;;;24.40;52.20;;;;;;4844808;29;20058;-66
2022/09/02 11:53:37;;;;;;;3.58;1.55;;;24.40;51.60;;;;;;4844258;29;20062;-67
2022/09/02 11:56:06;;;;;;;2.28;1.13;;;24.30;51.50;;;;;;4848414;29;20062;-69
2022/09/02 11:58:40;;;;;;;2.17;1.08;;;24.40;51.40;;;;;;4852501;29;20525;-67
2022/09/02 12:01:14;;;;;;;1.13;0.90;;;24.40;51.30;;;;;;4863519;29;20382;-67
2022/09/02 12:03:52;;;;;;;2.60;0.82;;;24.50;51.40;;;;;;4862925;29;20061;-67
2022/09/02 12:06:19;;;;;;;2.25;1.00;;;24.50;51.20;;;;;;4846382;29;20411;-66
2022/09/02 12:08:45;;;;;;;1.63;1.10;;;24.50;50.90;;;;;;4862082;29;20095;-67
2022/09/02 12:11:41;;;;;;;1.90;1.10;;;24.50;51.30;;;;;;4853287;29;20065;-67
2022/09/02 12:14:33;;;;;;;2.78;0.80;;;24.60;51.20;;;;;;4853191;29;20406;-67
2022/09/02 12:17:03;;;;;;;1.83;0.90;;;24.50;50.30;;;;;;4843185;29;20057;-66
2022/09/02 12:19:39;;;;;;;5.47;1.02;;;24.50;51.50;;;;;;4862694;29;20144;-68
2022/09/02 12:22:14;;;;;;;3.05;1.25;;;24.70;51.80;;;;;;4862248;29;20058;-67
2022/09/02 12:24:56;;;;;;;1.85;1.17;;;24.80;50.60;;;;;;4845809;29;20069;-66
2022/09/02 12:27:25;;;;;;;1.27;0.90;;;24.80;50.20;;;;;;4858189;29;20045;-69
2022/09/02 12:29:51;;;;;;;1.88;1.25;;;24.90;51.30;;;;;;4842152;29;20540;-68
2022/09/02 12:32:42;;;;;;;3.33;1.10;;;24.90;50.90;;;;;;4852785;29;20076;-68
2022/09/02 12:35:12;;;;;;;4.10;1.15;;;24.90;49.30;;;;;;4854477;29;20053;-66
2022/09/02 12:38:13;;;;;;;1.52;0.90;;;24.90;50.70;;;;;;4853072;29;20395;-67
2022/09/02 12:41:02;;;;;;;2.28;1.30;;;24.90;50.80;;;;;;4830891;29;20513;-66
2022/09/02 12:43:46;;;;;;;2.50;1.10;;;25.00;50.60;;;;;;4851945;29;20061;-66
2022/09/02 12:46:43;;;;;;;1.65;1.08;;;25.00;50.50;;;;;;4836638;29;20060;-66
2022/09/02 12:49:32;;;;;;;3.35;1.05;;;25.10;50.60;;;;;;4852249;29;20054;-65
2022/09/02 12:52:05;;;;;;;4.75;1.35;;;25.00;50.10;;;;;;4851925;29;20068;-66
2022/09/02 12:54:48;;;;;;;2.67;1.33;;;25.10;50.30;;;;;;4853739;29;20050;-66
2022/09/02 12:57:16;;;;;;;2.65;1.17;;;25.20;48.30;;;;;;4835066;29;20046;-66
2022/09/02 12:59:43;;;;;;;1.92;0.93;;;25.10;49.90;;;;;;4854437;29;20054;-67
2022/09/02 13:02:08;;;;;;;1.60;1.10;;;25.20;50.20;;;;;;4851581;29;20068;-65
2022/09/02 13:04:44;;;;;;;1.85;1.27;;;25.10;49.80;;;;;;4838070;29;20125;-65
2022/09/02 13:08:06;;;;;;;3.28;1.10;;;25.10;50.10;;;;;;4853402;29;20417;-65
2022/09/02 13:10:58;;;;;;;1.50;1.00;;;25.20;50.30;;;;;;4820604;29;20065;-66
2022/09/02 13:13:46;;;;;;;5.60;1.33;;;25.20;50.40;;;;;;4820411;29;20172;-66